sensor_id;sensor_type;location;lat;lon;timestamp;P1;durP1;ratioP1;P2;durP2;ratioP2
11111;SDS011;5609;49.466;8.468;2024-01-30T00:00:22;11.00;;;9.57;;
11111;SDS011;5609;49.466;8.468;2024-01-30T00:02:49;10.97;;;9.73;;
11111;SDS011;5609;49.466;8.468;2024-01-30T00:05:16;10.70;;;9.40;;
11111;SDS011;5609;49.466;8.468;2024-01-30T00:07:43;10.67;;;9.50;;
11111;SDS011;5609;49.466;8.468;2024-01-30T00:10:11;12.50;;;10.07;;
11111;SDS011;5609;49.466;8.468;2024-01-30T00:12:37;11.00;;;9.33;;
11111;SDS011;5609;49.466;8.468;2024-01-30T00:15:04;11.30;;;9.43;;
11111;SDS011;5609;49.466;8.468;2024-01-30T00:17:34;10.13;;;9.03;;
11111;SDS011;5609;49.466;8.468;2024-01-30T00:20:01;10.50;;;9.40;;
11111;SDS011;5609;49.466;8.468;2024-01-30T00:22:30;13.27;;;9.67;;
11111;SDS011;5609;49.466;8.468;2024-01-30T00:24:56;11.90;;;10.10;;
11111;SDS011;5609;49.466;8.468;2024-01-30T00:27:25;11.40;;;10.03;;
11111;SDS011;5609;49.466;8.468;2024-01-30T00:29:52;10.13;;;9.03;;
11111;SDS011;5609;49.466;8.468;2024-01-30T00:32:19;10.57;;;9.50;;
11111;SDS011;5609;49.466;8.468;2024-01-30T00:34:45;11.23;;;9.17;;
11111;SDS011;5609;49.466;8.468;2024-01-30T00:37:12;9.67;;;8.57;;
11111;SDS011;5609;49.466;8.468;2024-01-30T00:39:38;9.40;;;8.40;;
11111;SDS011;5609;49.466;8.468;2024-01-30T00:42:05;11.17;;;9.30;;
11111;SDS011;5609;49.466;8.468;2024-01-30T00:44:35;9.70;;;8.70;;
11111;SDS011;5609;49.466;8.468;2024-01-30T00:47:03;9.33;;;8.30;;
11111;SDS011;5609;49.466;8.468;2024-01-30T00:49:30;10.33;;;8.40;;
11111;SDS011;5609;49.466;8.468;2024-01-30T00:51:56;10.37;;;8.93;;
11111;SDS011;5609;49.466;8.468;2024-01-30T00:54:23;10.80;;;8.10;;
11111;SDS011;5609;49.466;8.468;2024-01-30T00:56:49;9.20;;;8.17;;
11111;SDS011;5609;49.466;8.468;2024-01-30T00:59:16;9.23;;;8.20;;
11111;SDS011;5609;49.466;8.468;2024-01-30T01:01:44;9.57;;;8.67;;
11111;SDS011;5609;49.466;8.468;2024-01-30T01:04:10;9.93;;;8.87;;
11111;SDS011;5609;49.466;8.468;2024-01-30T01:06:37;9.17;;;8.03;;
11111;SDS011;5609;49.466;8.468;2024-01-30T01:09:04;9.77;;;8.77;;
11111;SDS011;5609;49.466;8.468;2024-01-30T01:11:29;11.37;;;8.50;;
11111;SDS011;5609;49.466;8.468;2024-01-30T01:13:56;10.07;;;8.20;;
11111;SDS011;5609;49.466;8.468;2024-01-30T01:16:23;11.13;;;8.60;;
11111;SDS011;5609;49.466;8.468;2024-01-30T01:18:50;10.77;;;8.43;;
11111;SDS011;5609;49.466;8.468;2024-01-30T01:21:17;9.43;;;8.33;;
11111;SDS011;5609;49.466;8.468;2024-01-30T01:23:44;9.57;;;8.50;;
11111;SDS011;5609;49.466;8.468;2024-01-30T01:26:10;10.00;;;8.80;;
11111;SDS011;5609;49.466;8.468;2024-01-30T01:28:38;9.40;;;8.40;;
11111;SDS011;5609;49.466;8.468;2024-01-30T01:31:05;10.30;;;8.90;;
11111;SDS011;5609;49.466;8.468;2024-01-30T01:33:32;9.80;;;8.80;;
11111;SDS011;5609;49.466;8.468;2024-01-30T01:36:00;10.00;;;8.70;;
11111;SDS011;5609;49.466;8.468;2024-01-30T01:38:27;10.00;;;8.73;;
11111;SDS011;5609;49.466;8.468;2024-01-30T01:40:54;9.77;;;8.77;;
11111;SDS011;5609;49.466;8.468;2024-01-30T01:43:21;9.47;;;8.47;;
11111;SDS011;5609;49.466;8.468;2024-01-30T01:45:47;10.17;;;8.67;;
11111;SDS011;5609;49.466;8.468;2024-01-30T01:48:14;9.40;;;8.40;;
11111;SDS011;5609;49.466;8.468;2024-01-30T01:50:41;9.63;;;8.63;;
11111;SDS011;5609;49.466;8.468;2024-01-30T01:53:11;10.87;;;8.50;;
11111;SDS011;5609;49.466;8.468;2024-01-30T01:55:38;10.20;;;8.67;;
11111;SDS011;5609;49.466;8.468;2024-01-30T01:58:05;9.23;;;8.23;;
11111;SDS011;5609;49.466;8.468;2024-01-30T02:00:33;9.30;;;8.10;;
11111;SDS011;5609;49.466;8.468;2024-01-30T02:03:04;9.77;;;8.37;;
11111;SDS011;5609;49.466;8.468;2024-01-30T02:05:32;9.50;;;8.50;;
11111;SDS011;5609;49.466;8.468;2024-01-30T02:08:00;9.37;;;8.43;;
11111;SDS011;5609;49.466;8.468;2024-01-30T02:10:29;9.07;;;8.17;;
11111;SDS011;5609;49.466;8.468;2024-01-30T02:12:56;10.17;;;8.27;;
11111;SDS011;5609;49.466;8.468;2024-01-30T02:15:22;9.23;;;8.33;;
11111;SDS011;5609;49.466;8.468;2024-01-30T02:17:49;9.27;;;8.30;;
11111;SDS011;5609;49.466;8.468;2024-01-30T02:20:16;10.20;;;9.10;;
11111;SDS011;5609;49.466;8.468;2024-01-30T02:22:44;9.80;;;8.17;;
11111;SDS011;5609;49.466;8.468;2024-01-30T02:25:12;8.97;;;8.07;;
11111;SDS011;5609;49.466;8.468;2024-01-30T02:27:39;9.50;;;8.37;;
11111;SDS011;5609;49.466;8.468;2024-01-30T02:30:06;9.37;;;8.17;;
11111;SDS011;5609;49.466;8.468;2024-01-30T02:32:33;9.77;;;8.37;;
11111;SDS011;5609;49.466;8.468;2024-01-30T02:35:00;9.13;;;7.93;;
11111;SDS011;5609;49.466;8.468;2024-01-30T02:37:27;11.03;;;7.97;;
11111;SDS011;5609;49.466;8.468;2024-01-30T02:39:55;10.70;;;8.10;;
11111;SDS011;5609;49.466;8.468;2024-01-30T02:42:21;8.93;;;8.03;;
11111;SDS011;5609;49.466;8.468;2024-01-30T02:44:48;9.43;;;8.00;;
11111;SDS011;5609;49.466;8.468;2024-01-30T02:47:14;9.93;;;7.80;;
11111;SDS011;5609;49.466;8.468;2024-01-30T02:49:41;9.63;;;8.13;;
11111;SDS011;5609;49.466;8.468;2024-01-30T02:52:08;9.50;;;7.87;;
11111;SDS011;5609;49.466;8.468;2024-01-30T02:54:35;9.43;;;7.70;;
11111;SDS011;5609;49.466;8.468;2024-01-30T02:57:03;8.40;;;7.43;;
11111;SDS011;5609;49.466;8.468;2024-01-30T02:59:29;8.27;;;7.47;;
11111;SDS011;5609;49.466;8.468;2024-01-30T03:01:58;9.87;;;7.33;;
11111;SDS011;5609;49.466;8.468;2024-01-30T03:04:25;8.17;;;7.37;;
11111;SDS011;5609;49.466;8.468;2024-01-30T03:06:51;8.60;;;7.70;;
11111;SDS011;5609;49.466;8.468;2024-01-30T03:09:18;8.17;;;7.27;;
11111;SDS011;5609;49.466;8.468;2024-01-30T03:11:45;9.00;;;7.70;;
11111;SDS011;5609;49.466;8.468;2024-01-30T03:14:13;8.90;;;8.00;;
11111;SDS011;5609;49.466;8.468;2024-01-30T03:16:40;8.73;;;7.47;;
11111;SDS011;5609;49.466;8.468;2024-01-30T03:19:07;8.00;;;7.20;;
11111;SDS011;5609;49.466;8.468;2024-01-30T03:21:34;9.17;;;7.30;;
11111;SDS011;5609;49.466;8.468;2024-01-30T03:24:01;8.60;;;7.50;;
11111;SDS011;5609;49.466;8.468;2024-01-30T03:26:28;8.37;;;7.50;;
11111;SDS011;5609;49.466;8.468;2024-01-30T03:28:54;8.67;;;7.77;;
11111;SDS011;5609;49.466;8.468;2024-01-30T03:31:24;9.33;;;7.63;;
11111;SDS011;5609;49.466;8.468;2024-01-30T03:33:51;8.67;;;7.80;;
11111;SDS011;5609;49.466;8.468;2024-01-30T03:36:18;8.90;;;7.67;;
11111;SDS011;5609;49.466;8.468;2024-01-30T03:38:46;9.00;;;7.97;;
11111;SDS011;5609;49.466;8.468;2024-01-30T03:41:13;8.77;;;7.87;;
11111;SDS011;5609;49.466;8.468;2024-01-30T03:43:40;9.70;;;8.00;;
11111;SDS011;5609;49.466;8.468;2024-01-30T03:46:11;9.67;;;8.13;;
11111;SDS011;5609;49.466;8.468;2024-01-30T03:48:39;8.97;;;8.07;;
11111;SDS011;5609;49.466;8.468;2024-01-30T03:51:06;8.17;;;7.30;;
11111;SDS011;5609;49.466;8.468;2024-01-30T03:53:33;8.67;;;7.63;;
11111;SDS011;5609;49.466;8.468;2024-01-30T03:56:00;8.80;;;7.90;;
11111;SDS011;5609;49.466;8.468;2024-01-30T03:58:28;8.90;;;8.00;;
11111;SDS011;5609;49.466;8.468;2024-01-30T04:00:54;8.70;;;7.80;;
11111;SDS011;5609;49.466;8.468;2024-01-30T04:03:21;9.40;;;8.43;;
11111;SDS011;5609;49.466;8.468;2024-01-30T04:05:49;8.87;;;7.97;;
11111;SDS011;5609;49.466;8.468;2024-01-30T04:08:17;9.10;;;8.03;;
11111;SDS011;5609;49.466;8.468;2024-01-30T04:10:43;9.30;;;8.40;;
11111;SDS011;5609;49.466;8.468;2024-01-30T04:13:10;10.20;;;8.53;;
11111;SDS011;5609;49.466;8.468;2024-01-30T04:15:36;11.27;;;9.07;;
11111;SDS011;5609;49.466;8.468;2024-01-30T04:18:04;8.80;;;7.90;;
11111;SDS011;5609;49.466;8.468;2024-01-30T04:20:31;8.37;;;7.47;;
11111;SDS011;5609;49.466;8.468;2024-01-30T04:23:00;8.77;;;7.87;;
11111;SDS011;5609;49.466;8.468;2024-01-30T04:25:27;9.50;;;8.00;;
11111;SDS011;5609;49.466;8.468;2024-01-30T04:27:53;8.67;;;7.77;;
11111;SDS011;5609;49.466;8.468;2024-01-30T04:30:20;8.67;;;7.77;;
11111;SDS011;5609;49.466;8.468;2024-01-30T04:32:47;9.50;;;7.43;;
11111;SDS011;5609;49.466;8.468;2024-01-30T04:35:14;8.37;;;7.57;;
11111;SDS011;5609;49.466;8.468;2024-01-30T04:37:41;8.17;;;7.37;;
11111;SDS011;5609;49.466;8.468;2024-01-30T04:40:11;8.80;;;7.90;;
11111;SDS011;5609;49.466;8.468;2024-01-30T04:42:40;8.33;;;7.40;;
11111;SDS011;5609;49.466;8.468;2024-01-30T04:45:06;8.97;;;8.07;;
11111;SDS011;5609;49.466;8.468;2024-01-30T04:47:33;8.70;;;7.80;;
11111;SDS011;5609;49.466;8.468;2024-01-30T04:50:00;9.80;;;7.33;;
11111;SDS011;5609;49.466;8.468;2024-01-30T04:52:29;8.37;;;7.57;;
11111;SDS011;5609;49.466;8.468;2024-01-30T04:54:57;9.83;;;7.90;;
11111;SDS011;5609;49.466;8.468;2024-01-30T04:57:26;9.87;;;7.43;;
11111;SDS011;5609;49.466;8.468;2024-01-30T04:59:58;8.43;;;7.40;;
11111;SDS011;5609;49.466;8.468;2024-01-30T05:02:26;8.33;;;7.43;;
11111;SDS011;5609;49.466;8.468;2024-01-30T05:04:53;8.87;;;7.97;;
11111;SDS011;5609;49.466;8.468;2024-01-30T05:07:20;9.43;;;8.00;;
11111;SDS011;5609;49.466;8.468;2024-01-30T05:09:49;11.70;;;8.57;;
11111;SDS011;5609;49.466;8.468;2024-01-30T05:12:16;9.43;;;8.10;;
11111;SDS011;5609;49.466;8.468;2024-01-30T05:14:44;9.50;;;8.50;;
11111;SDS011;5609;49.466;8.468;2024-01-30T05:17:11;9.67;;;8.67;;
11111;SDS011;5609;49.466;8.468;2024-01-30T05:19:40;10.07;;;8.73;;
11111;SDS011;5609;49.466;8.468;2024-01-30T05:22:08;11.10;;;8.70;;
11111;SDS011;5609;49.466;8.468;2024-01-30T05:24:36;10.27;;;8.40;;
11111;SDS011;5609;49.466;8.468;2024-01-30T05:27:03;10.20;;;9.00;;
11111;SDS011;5609;49.466;8.468;2024-01-30T05:29:29;9.90;;;8.90;;
11111;SDS011;5609;49.466;8.468;2024-01-30T05:31:57;9.87;;;8.87;;
11111;SDS011;5609;49.466;8.468;2024-01-30T05:34:24;10.40;;;9.27;;
11111;SDS011;5609;49.466;8.468;2024-01-30T05:36:51;10.77;;;9.13;;
11111;SDS011;5609;49.466;8.468;2024-01-30T05:39:17;10.97;;;9.77;;
11111;SDS011;5609;49.466;8.468;2024-01-30T05:41:45;12.53;;;9.33;;
11111;SDS011;5609;49.466;8.468;2024-01-30T05:44:11;11.03;;;9.83;;
11111;SDS011;5609;49.466;8.468;2024-01-30T05:46:39;11.60;;;9.80;;
11111;SDS011;5609;49.466;8.468;2024-01-30T05:49:07;10.77;;;9.57;;
11111;SDS011;5609;49.466;8.468;2024-01-30T05:51:34;10.83;;;9.20;;
11111;SDS011;5609;49.466;8.468;2024-01-30T05:54:01;11.97;;;9.50;;
11111;SDS011;5609;49.466;8.468;2024-01-30T05:56:28;11.37;;;10.17;;
11111;SDS011;5609;49.466;8.468;2024-01-30T05:58:57;10.57;;;9.53;;
11111;SDS011;5609;49.466;8.468;2024-01-30T06:01:24;11.03;;;9.93;;
11111;SDS011;5609;49.466;8.468;2024-01-30T06:03:50;11.20;;;9.87;;
11111;SDS011;5609;49.466;8.468;2024-01-30T06:06:18;10.60;;;9.50;;
11111;SDS011;5609;49.466;8.468;2024-01-30T06:08:45;12.03;;;10.73;;
11111;SDS011;5609;49.466;8.468;2024-01-30T06:11:11;11.13;;;10.03;;
11111;SDS011;5609;49.466;8.468;2024-01-30T06:13:38;10.87;;;9.77;;
11111;SDS011;5609;49.466;8.468;2024-01-30T06:16:08;11.70;;;10.00;;
11111;SDS011;5609;49.466;8.468;2024-01-30T06:18:36;11.20;;;9.57;;
11111;SDS011;5609;49.466;8.468;2024-01-30T06:21:04;11.83;;;10.17;;
11111;SDS011;5609;49.466;8.468;2024-01-30T06:23:32;10.43;;;9.37;;
11111;SDS011;5609;49.466;8.468;2024-01-30T06:25:58;11.30;;;9.73;;
11111;SDS011;5609;49.466;8.468;2024-01-30T06:28:26;12.90;;;10.20;;
11111;SDS011;5609;49.466;8.468;2024-01-30T06:30:54;10.70;;;9.60;;
11111;SDS011;5609;49.466;8.468;2024-01-30T06:33:21;11.83;;;9.83;;
11111;SDS011;5609;49.466;8.468;2024-01-30T06:35:50;10.63;;;9.63;;
11111;SDS011;5609;49.466;8.468;2024-01-30T06:38:17;11.83;;;10.07;;
11111;SDS011;5609;49.466;8.468;2024-01-30T06:40:45;11.20;;;10.10;;
11111;SDS011;5609;49.466;8.468;2024-01-30T06:43:12;11.07;;;9.87;;
11111;SDS011;5609;49.466;8.468;2024-01-30T06:45:39;12.87;;;9.90;;
11111;SDS011;5609;49.466;8.468;2024-01-30T06:48:07;10.63;;;9.40;;
11111;SDS011;5609;49.466;8.468;2024-01-30T06:50:34;11.43;;;9.97;;
11111;SDS011;5609;49.466;8.468;2024-01-30T06:53:00;11.20;;;9.97;;
11111;SDS011;5609;49.466;8.468;2024-01-30T06:55:27;11.27;;;9.70;;
11111;SDS011;5609;49.466;8.468;2024-01-30T06:57:55;11.20;;;9.63;;
11111;SDS011;5609;49.466;8.468;2024-01-30T07:00:22;10.80;;;9.70;;
11111;SDS011;5609;49.466;8.468;2024-01-30T07:02:50;12.40;;;10.30;;
11111;SDS011;5609;49.466;8.468;2024-01-30T07:05:18;10.90;;;9.73;;
11111;SDS011;5609;49.466;8.468;2024-01-30T07:07:46;12.67;;;10.73;;
11111;SDS011;5609;49.466;8.468;2024-01-30T07:10:13;13.07;;;10.73;;
11111;SDS011;5609;49.466;8.468;2024-01-30T07:12:40;11.67;;;10.47;;
11111;SDS011;5609;49.466;8.468;2024-01-30T07:15:09;13.63;;;10.70;;
11111;SDS011;5609;49.466;8.468;2024-01-30T07:17:36;11.60;;;10.43;;
11111;SDS011;5609;49.466;8.468;2024-01-30T07:20:03;11.67;;;10.17;;
11111;SDS011;5609;49.466;8.468;2024-01-30T07:22:31;12.23;;;10.60;;
11111;SDS011;5609;49.466;8.468;2024-01-30T07:24:58;14.40;;;10.93;;
11111;SDS011;5609;49.466;8.468;2024-01-30T07:27:25;11.70;;;10.50;;
11111;SDS011;5609;49.466;8.468;2024-01-30T07:29:55;11.50;;;10.30;;
11111;SDS011;5609;49.466;8.468;2024-01-30T07:32:23;12.90;;;11.00;;
11111;SDS011;5609;49.466;8.468;2024-01-30T07:34:50;14.20;;;11.03;;
11111;SDS011;5609;49.466;8.468;2024-01-30T07:37:17;13.17;;;10.27;;
11111;SDS011;5609;49.466;8.468;2024-01-30T07:39:44;11.67;;;10.47;;
11111;SDS011;5609;49.466;8.468;2024-01-30T07:42:11;11.93;;;10.30;;
11111;SDS011;5609;49.466;8.468;2024-01-30T07:44:40;12.90;;;10.87;;
11111;SDS011;5609;49.466;8.468;2024-01-30T07:47:06;11.47;;;10.23;;
11111;SDS011;5609;49.466;8.468;2024-01-30T07:49:35;15.20;;;10.77;;
11111;SDS011;5609;49.466;8.468;2024-01-30T07:52:03;12.70;;;11.23;;
11111;SDS011;5609;49.466;8.468;2024-01-30T07:54:30;15.77;;;11.27;;
11111;SDS011;5609;49.466;8.468;2024-01-30T07:56:58;11.93;;;10.73;;
11111;SDS011;5609;49.466;8.468;2024-01-30T07:59:26;12.30;;;10.80;;
11111;SDS011;5609;49.466;8.468;2024-01-30T08:01:53;12.00;;;10.60;;
11111;SDS011;5609;49.466;8.468;2024-01-30T08:04:20;13.00;;;10.73;;
11111;SDS011;5609;49.466;8.468;2024-01-30T08:06:48;11.40;;;10.27;;
11111;SDS011;5609;49.466;8.468;2024-01-30T08:09:15;11.70;;;10.37;;
11111;SDS011;5609;49.466;8.468;2024-01-30T08:11:41;12.17;;;10.97;;
11111;SDS011;5609;49.466;8.468;2024-01-30T08:14:08;13.23;;;10.97;;
11111;SDS011;5609;49.466;8.468;2024-01-30T08:16:35;11.73;;;9.93;;
11111;SDS011;5609;49.466;8.468;2024-01-30T08:19:02;12.17;;;10.30;;
11111;SDS011;5609;49.466;8.468;2024-01-30T08:21:29;11.87;;;10.60;;
11111;SDS011;5609;49.466;8.468;2024-01-30T08:24:02;11.33;;;10.13;;
11111;SDS011;5609;49.466;8.468;2024-01-30T08:26:29;11.50;;;10.20;;
11111;SDS011;5609;49.466;8.468;2024-01-30T08:28:56;12.03;;;10.20;;
11111;SDS011;5609;49.466;8.468;2024-01-30T08:31:23;11.47;;;9.87;;
11111;SDS011;5609;49.466;8.468;2024-01-30T08:33:50;11.33;;;10.23;;
11111;SDS011;5609;49.466;8.468;2024-01-30T08:36:17;11.53;;;10.23;;
11111;SDS011;5609;49.466;8.468;2024-01-30T08:38:44;11.13;;;9.93;;
11111;SDS011;5609;49.466;8.468;2024-01-30T08:41:12;11.67;;;10.30;;
11111;SDS011;5609;49.466;8.468;2024-01-30T08:43:38;12.07;;;10.77;;
11111;SDS011;5609;49.466;8.468;2024-01-30T08:46:05;11.53;;;10.33;;
11111;SDS011;5609;49.466;8.468;2024-01-30T08:48:32;11.80;;;10.57;;
11111;SDS011;5609;49.466;8.468;2024-01-30T08:50:58;11.37;;;10.27;;
11111;SDS011;5609;49.466;8.468;2024-01-30T08:53:25;11.33;;;10.03;;
11111;SDS011;5609;49.466;8.468;2024-01-30T08:55:52;11.20;;;10.10;;
11111;SDS011;5609;49.466;8.468;2024-01-30T08:58:20;11.47;;;10.27;;
11111;SDS011;5609;49.466;8.468;2024-01-30T09:00:46;12.87;;;10.60;;
11111;SDS011;5609;49.466;8.468;2024-01-30T09:03:13;11.30;;;10.20;;
11111;SDS011;5609;49.466;8.468;2024-01-30T09:05:40;11.43;;;10.23;;
11111;SDS011;5609;49.466;8.468;2024-01-30T09:08:07;13.63;;;10.27;;
11111;SDS011;5609;49.466;8.468;2024-01-30T09:10:34;12.20;;;10.90;;
11111;SDS011;5609;49.466;8.468;2024-01-30T09:13:00;13.47;;;10.50;;
11111;SDS011;5609;49.466;8.468;2024-01-30T09:15:28;11.47;;;10.20;;
11111;SDS011;5609;49.466;8.468;2024-01-30T09:17:55;11.83;;;10.57;;
11111;SDS011;5609;49.466;8.468;2024-01-30T09:20:24;11.93;;;10.53;;
11111;SDS011;5609;49.466;8.468;2024-01-30T09:22:51;10.60;;;9.60;;
11111;SDS011;5609;49.466;8.468;2024-01-30T09:25:18;12.30;;;10.40;;
11111;SDS011;5609;49.466;8.468;2024-01-30T09:27:44;13.80;;;10.73;;
11111;SDS011;5609;49.466;8.468;2024-01-30T09:30:12;12.90;;;10.90;;
11111;SDS011;5609;49.466;8.468;2024-01-30T09:32:40;11.93;;;10.77;;
11111;SDS011;5609;49.466;8.468;2024-01-30T09:35:08;12.20;;;11.00;;
11111;SDS011;5609;49.466;8.468;2024-01-30T09:37:35;13.67;;;10.63;;
11111;SDS011;5609;49.466;8.468;2024-01-30T09:40:02;12.00;;;10.80;;
11111;SDS011;5609;49.466;8.468;2024-01-30T09:42:32;14.23;;;11.03;;
11111;SDS011;5609;49.466;8.468;2024-01-30T09:45:00;11.30;;;10.17;;
11111;SDS011;5609;49.466;8.468;2024-01-30T09:47:28;11.60;;;10.40;;
11111;SDS011;5609;49.466;8.468;2024-01-30T09:50:02;11.97;;;10.20;;
11111;SDS011;5609;49.466;8.468;2024-01-30T09:52:31;12.73;;;10.33;;
11111;SDS011;5609;49.466;8.468;2024-01-30T09:54:59;12.40;;;10.67;;
11111;SDS011;5609;49.466;8.468;2024-01-30T09:57:26;11.67;;;10.57;;
11111;SDS011;5609;49.466;8.468;2024-01-30T09:59:53;11.70;;;10.50;;
11111;SDS011;5609;49.466;8.468;2024-01-30T10:02:20;10.70;;;9.70;;
11111;SDS011;5609;49.466;8.468;2024-01-30T10:04:47;11.53;;;10.33;;
11111;SDS011;5609;49.466;8.468;2024-01-30T10:07:16;12.37;;;10.70;;
11111;SDS011;5609;49.466;8.468;2024-01-30T10:09:42;12.50;;;10.27;;
11111;SDS011;5609;49.466;8.468;2024-01-30T10:12:09;11.67;;;9.93;;
11111;SDS011;5609;49.466;8.468;2024-01-30T10:14:37;11.43;;;10.23;;
11111;SDS011;5609;49.466;8.468;2024-01-30T10:17:04;11.43;;;10.27;;
11111;SDS011;5609;49.466;8.468;2024-01-30T10:19:34;11.87;;;10.60;;
11111;SDS011;5609;49.466;8.468;2024-01-30T10:22:01;11.97;;;10.70;;
11111;SDS011;5609;49.466;8.468;2024-01-30T10:24:29;11.67;;;10.47;;
11111;SDS011;5609;49.466;8.468;2024-01-30T10:26:57;11.60;;;10.40;;
11111;SDS011;5609;49.466;8.468;2024-01-30T10:29:25;11.17;;;10.07;;
11111;SDS011;5609;49.466;8.468;2024-01-30T10:31:59;11.30;;;10.10;;
11111;SDS011;5609;49.466;8.468;2024-01-30T10:34:26;11.17;;;10.07;;
11111;SDS011;5609;49.466;8.468;2024-01-30T10:36:57;12.03;;;10.57;;
11111;SDS011;5609;49.466;8.468;2024-01-30T10:39:33;11.50;;;10.30;;
11111;SDS011;5609;49.466;8.468;2024-01-30T10:42:06;11.77;;;10.07;;
11111;SDS011;5609;49.466;8.468;2024-01-30T10:44:37;11.67;;;10.10;;
11111;SDS011;5609;49.466;8.468;2024-01-30T10:47:21;11.77;;;9.67;;
11111;SDS011;5609;49.466;8.468;2024-01-30T10:49:53;11.07;;;9.43;;
11111;SDS011;5609;49.466;8.468;2024-01-30T10:52:22;11.53;;;10.00;;
11111;SDS011;5609;49.466;8.468;2024-01-30T10:54:53;10.67;;;9.57;;
11111;SDS011;5609;49.466;8.468;2024-01-30T10:57:21;10.60;;;9.50;;
11111;SDS011;5609;49.466;8.468;2024-01-30T10:59:50;11.83;;;9.57;;
11111;SDS011;5609;49.466;8.468;2024-01-30T11:02:19;11.77;;;9.80;;
11111;SDS011;5609;49.466;8.468;2024-01-30T11:04:46;10.00;;;8.77;;
11111;SDS011;5609;49.466;8.468;2024-01-30T11:07:15;11.53;;;9.60;;
11111;SDS011;5609;49.466;8.468;2024-01-30T11:09:48;11.03;;;9.10;;
11111;SDS011;5609;49.466;8.468;2024-01-30T11:12:21;10.47;;;9.47;;
11111;SDS011;5609;49.466;8.468;2024-01-30T11:14:49;11.10;;;9.60;;
11111;SDS011;5609;49.466;8.468;2024-01-30T11:17:27;10.23;;;9.27;;
11111;SDS011;5609;49.466;8.468;2024-01-30T11:20:09;10.63;;;9.53;;
11111;SDS011;5609;49.466;8.468;2024-01-30T11:22:51;10.60;;;9.50;;
11111;SDS011;5609;49.466;8.468;2024-01-30T11:25:22;11.93;;;9.37;;
11111;SDS011;5609;49.466;8.468;2024-01-30T11:27:50;11.07;;;9.20;;
11111;SDS011;5609;49.466;8.468;2024-01-30T11:30:22;10.67;;;9.60;;
11111;SDS011;5609;49.466;8.468;2024-01-30T11:32:59;11.33;;;9.63;;
11111;SDS011;5609;49.466;8.468;2024-01-30T11:35:26;11.43;;;9.47;;
11111;SDS011;5609;49.466;8.468;2024-01-30T11:37:53;10.33;;;9.33;;
11111;SDS011;5609;49.466;8.468;2024-01-30T11:40:22;10.40;;;9.37;;
11111;SDS011;5609;49.466;8.468;2024-01-30T11:42:51;11.13;;;9.63;;
11111;SDS011;5609;49.466;8.468;2024-01-30T11:45:18;10.60;;;9.50;;
11111;SDS011;5609;49.466;8.468;2024-01-30T11:47:44;11.57;;;9.50;;
11111;SDS011;5609;49.466;8.468;2024-01-30T11:50:11;10.53;;;9.43;;
11111;SDS011;5609;49.466;8.468;2024-01-30T11:52:38;10.37;;;9.37;;
11111;SDS011;5609;49.466;8.468;2024-01-30T11:55:06;11.37;;;9.27;;
11111;SDS011;5609;49.466;8.468;2024-01-30T11:57:35;10.03;;;9.10;;
11111;SDS011;5609;49.466;8.468;2024-01-30T12:00:03;10.60;;;9.50;;
11111;SDS011;5609;49.466;8.468;2024-01-30T12:02:35;10.13;;;9.07;;
11111;SDS011;5609;49.466;8.468;2024-01-30T12:05:03;10.67;;;9.37;;
11111;SDS011;5609;49.466;8.468;2024-01-30T12:07:31;9.77;;;8.87;;
11111;SDS011;5609;49.466;8.468;2024-01-30T12:10:00;9.87;;;8.87;;
11111;SDS011;5609;49.466;8.468;2024-01-30T12:12:28;10.47;;;9.03;;
11111;SDS011;5609;49.466;8.468;2024-01-30T12:14:57;9.67;;;8.77;;
11111;SDS011;5609;49.466;8.468;2024-01-30T12:17:24;10.20;;;9.10;;
11111;SDS011;5609;49.466;8.468;2024-01-30T12:20:02;9.80;;;8.80;;
11111;SDS011;5609;49.466;8.468;2024-01-30T12:22:29;9.50;;;8.57;;
11111;SDS011;5609;49.466;8.468;2024-01-30T12:24:56;10.10;;;9.20;;
11111;SDS011;5609;49.466;8.468;2024-01-30T12:27:23;10.20;;;8.87;;
11111;SDS011;5609;49.466;8.468;2024-01-30T12:29:56;10.43;;;9.17;;
11111;SDS011;5609;49.466;8.468;2024-01-30T12:32:24;10.57;;;9.47;;
11111;SDS011;5609;49.466;8.468;2024-01-30T12:34:54;10.07;;;9.07;;
11111;SDS011;5609;49.466;8.468;2024-01-30T12:37:21;10.30;;;9.33;;
11111;SDS011;5609;49.466;8.468;2024-01-30T12:39:49;10.20;;;9.07;;
11111;SDS011;5609;49.466;8.468;2024-01-30T12:42:18;10.10;;;9.10;;
11111;SDS011;5609;49.466;8.468;2024-01-30T12:44:46;11.80;;;8.87;;
11111;SDS011;5609;49.466;8.468;2024-01-30T12:47:16;9.33;;;8.33;;
11111;SDS011;5609;49.466;8.468;2024-01-30T12:49:43;9.60;;;8.60;;
11111;SDS011;5609;49.466;8.468;2024-01-30T12:52:11;9.40;;;8.50;;
11111;SDS011;5609;49.466;8.468;2024-01-30T12:54:41;10.53;;;8.63;;
11111;SDS011;5609;49.466;8.468;2024-01-30T12:57:07;10.30;;;8.57;;
11111;SDS011;5609;49.466;8.468;2024-01-30T12:59:34;10.10;;;8.23;;
11111;SDS011;5609;49.466;8.468;2024-01-30T13:02:01;8.93;;;7.83;;
11111;SDS011;5609;49.466;8.468;2024-01-30T13:04:29;8.53;;;7.63;;
11111;SDS011;5609;49.466;8.468;2024-01-30T13:06:56;8.83;;;7.50;;
11111;SDS011;5609;49.466;8.468;2024-01-30T13:09:25;8.53;;;7.63;;
11111;SDS011;5609;49.466;8.468;2024-01-30T13:11:52;8.20;;;7.43;;
11111;SDS011;5609;49.466;8.468;2024-01-30T13:14:19;9.73;;;7.83;;
11111;SDS011;5609;49.466;8.468;2024-01-30T13:16:46;8.23;;;7.43;;
11111;SDS011;5609;49.466;8.468;2024-01-30T13:19:13;8.90;;;8.00;;
11111;SDS011;5609;49.466;8.468;2024-01-30T13:21:41;9.70;;;7.77;;
11111;SDS011;5609;49.466;8.468;2024-01-30T13:24:08;8.30;;;7.50;;
11111;SDS011;5609;49.466;8.468;2024-01-30T13:26:34;9.63;;;7.97;;
11111;SDS011;5609;49.466;8.468;2024-01-30T13:29:02;7.80;;;6.93;;
11111;SDS011;5609;49.466;8.468;2024-01-30T13:31:31;9.10;;;7.53;;
11111;SDS011;5609;49.466;8.468;2024-01-30T13:33:58;8.77;;;7.37;;
11111;SDS011;5609;49.466;8.468;2024-01-30T13:36:26;8.33;;;7.43;;
11111;SDS011;5609;49.466;8.468;2024-01-30T13:38:54;8.13;;;7.27;;
11111;SDS011;5609;49.466;8.468;2024-01-30T13:41:22;8.40;;;7.00;;
11111;SDS011;5609;49.466;8.468;2024-01-30T13:43:49;9.40;;;7.50;;
11111;SDS011;5609;49.466;8.468;2024-01-30T13:46:18;7.90;;;7.10;;
11111;SDS011;5609;49.466;8.468;2024-01-30T13:48:45;8.40;;;6.80;;
11111;SDS011;5609;49.466;8.468;2024-01-30T13:51:13;8.03;;;7.23;;
11111;SDS011;5609;49.466;8.468;2024-01-30T13:53:41;9.90;;;7.40;;
11111;SDS011;5609;49.466;8.468;2024-01-30T13:56:10;7.90;;;7.03;;
11111;SDS011;5609;49.466;8.468;2024-01-30T13:58:37;8.50;;;7.20;;
11111;SDS011;5609;49.466;8.468;2024-01-30T14:01:03;7.07;;;6.37;;
11111;SDS011;5609;49.466;8.468;2024-01-30T14:03:31;9.07;;;6.67;;
11111;SDS011;5609;49.466;8.468;2024-01-30T14:05:58;7.80;;;6.70;;
11111;SDS011;5609;49.466;8.468;2024-01-30T14:08:25;8.10;;;6.70;;
11111;SDS011;5609;49.466;8.468;2024-01-30T14:10:55;8.37;;;6.80;;
11111;SDS011;5609;49.466;8.468;2024-01-30T14:13:23;9.87;;;7.00;;
11111;SDS011;5609;49.466;8.468;2024-01-30T14:15:50;7.57;;;6.40;;
11111;SDS011;5609;49.466;8.468;2024-01-30T14:18:17;7.83;;;6.60;;
11111;SDS011;5609;49.466;8.468;2024-01-30T14:20:44;7.63;;;6.73;;
11111;SDS011;5609;49.466;8.468;2024-01-30T14:23:11;7.40;;;6.43;;
11111;SDS011;5609;49.466;8.468;2024-01-30T14:25:38;7.37;;;6.67;;
11111;SDS011;5609;49.466;8.468;2024-01-30T14:28:05;7.87;;;7.07;;
11111;SDS011;5609;49.466;8.468;2024-01-30T14:30:33;8.10;;;7.07;;
11111;SDS011;5609;49.466;8.468;2024-01-30T14:33:00;8.57;;;7.57;;
11111;SDS011;5609;49.466;8.468;2024-01-30T14:35:27;8.27;;;7.00;;
11111;SDS011;5609;49.466;8.468;2024-01-30T14:37:57;7.77;;;6.70;;
11111;SDS011;5609;49.466;8.468;2024-01-30T14:40:26;8.40;;;7.00;;
11111;SDS011;5609;49.466;8.468;2024-01-30T14:42:54;9.07;;;7.40;;
11111;SDS011;5609;49.466;8.468;2024-01-30T14:45:21;8.03;;;7.00;;
11111;SDS011;5609;49.466;8.468;2024-01-30T14:47:49;7.53;;;6.83;;
11111;SDS011;5609;49.466;8.468;2024-01-30T14:50:20;8.23;;;6.70;;
11111;SDS011;5609;49.466;8.468;2024-01-30T14:52:47;8.43;;;6.53;;